createdAt,value
2022-08-07T00:00:15.390Z,15.50
2022-08-07T00:02:45.825Z,15.53
2022-08-07T00:05:12.960Z,15.44
2022-08-07T00:07:41.606Z,15.25
2022-08-07T00:10:25.960Z,15.44
2022-08-07T00:12:57.675Z,15.47
2022-08-07T00:15:35.933Z,15.31
2022-08-07T00:18:06.228Z,15.32
2022-08-07T00:20:34.393Z,15.35
2022-08-07T00:23:03.227Z,15.27
2022-08-07T00:25:37.550Z,15.13
2022-08-07T00:28:08.440Z,15.19
2022-08-07T00:30:37.721Z,15.48
2022-08-07T00:33:05.298Z,15.31
2022-08-07T00:35:36.583Z,15.27
2022-08-07T00:38:04.290Z,15.16
2022-08-07T00:40:36.620Z,15.44
2022-08-07T00:43:59.639Z,15.31
2022-08-07T00:46:01.895Z,15.18
2022-08-07T00:48:30.939Z,15.01
2022-08-07T00:51:00.376Z,15.10
2022-08-07T00:53:39.361Z,15.37
2022-08-07T00:56:15.882Z,15.25
2022-08-07T00:58:47.484Z,15.12
2022-08-07T01:01:20.358Z,15.23
2022-08-07T01:03:56.903Z,15.28
2022-08-07T01:06:29.240Z,15.16
2022-08-07T01:08:58.549Z,15.11
2022-08-07T01:12:09.722Z,15.12
2022-08-07T01:14:21.144Z,15.02
2022-08-07T01:16:56.353Z,15.06
2022-08-07T01:19:27.029Z,15.03
2022-08-07T01:21:59.991Z,15.10
2022-08-07T01:24:35.150Z,15.08
2022-08-07T01:27:02.813Z,15.28
2022-08-07T01:29:33.789Z,15.26
2022-08-07T01:32:05.584Z,15.10
2022-08-07T01:34:47.413Z,14.92
2022-08-07T01:37:17.459Z,15.14
2022-08-07T01:39:47.860Z,15.13
2022-08-07T01:42:39.874Z,15.07
2022-08-07T01:45:23.241Z,15.08
2022-08-07T01:48:19.912Z,15.27
2022-08-07T01:51:58.560Z,15.17
2022-08-07T01:54:11.925Z,15.38
2022-08-07T01:56:55.340Z,15.40
2022-08-07T01:59:44.049Z,15.19
2022-08-07T02:03:12.031Z,15.10
2022-08-07T02:05:48.122Z,15.29
2022-08-07T02:08:19.797Z,15.06
2022-08-07T02:10:57.914Z,15.26
2022-08-07T02:13:56.499Z,15.06
2022-08-07T02:16:20.115Z,14.83
2022-08-07T02:18:57.134Z,14.59
2022-08-07T02:21:27.141Z,14.91
2022-08-07T02:24:17.852Z,15.00
2022-08-07T02:26:48.247Z,14.97
2022-08-07T02:29:17.142Z,14.70
2022-08-07T02:31:50.705Z,14.73
2022-08-07T02:34:18.818Z,14.54
2022-08-07T02:36:52.601Z,14.55
2022-08-07T02:39:43.457Z,14.60
2022-08-07T02:42:16.251Z,14.64
2022-08-07T02:44:49.900Z,14.61
2022-08-07T02:47:23.624Z,14.70
2022-08-07T02:49:59.776Z,14.86
2022-08-07T02:52:44.226Z,15.04
2022-08-07T02:55:28.422Z,15.13
2022-08-07T02:58:14.651Z,15.13
2022-08-07T03:00:47.052Z,15.24
2022-08-07T03:03:21.219Z,15.18
2022-08-07T03:05:54.677Z,15.29
2022-08-07T03:08:27.003Z,15.29
2022-08-07T03:11:00.334Z,15.41
2022-08-07T03:13:39.026Z,15.31
2022-08-07T03:16:17.812Z,15.36
2022-08-07T03:18:50.653Z,15.38
2022-08-07T03:21:19.285Z,15.29
2022-08-07T03:24:20.527Z,15.07
2022-08-07T03:26:43.054Z,15.04
2022-08-07T03:29:22.160Z,14.91
2022-08-07T03:31:51.515Z,14.90
2022-08-07T03:34:22.867Z,14.82
2022-08-07T03:36:58.329Z,15.01
2022-08-07T03:39:59.078Z,14.89
2022-08-07T03:42:19.001Z,14.84
2022-08-07T03:44:53.347Z,14.76
2022-08-07T03:47:28.042Z,14.69
2022-08-07T03:49:58.524Z,14.58
2022-08-07T03:52:30.799Z,14.34
2022-08-07T03:55:06.803Z,14.64
2022-08-07T03:58:33.924Z,14.59
2022-08-07T04:00:30.815Z,14.69
2022-08-07T04:03:04.020Z,14.59
2022-08-07T04:05:40.901Z,14.55
2022-08-07T04:08:18.631Z,14.55
2022-08-07T04:10:54.687Z,14.49
2022-08-07T04:14:09.279Z,14.60
2022-08-07T04:16:30.856Z,14.69
2022-08-07T04:19:03.735Z,14.60
2022-08-07T04:21:33.369Z,14.52
2022-08-07T04:24:07.845Z,14.47
2022-08-07T04:26:40.249Z,14.51
2022-08-07T04:29:11.141Z,14.58
2022-08-07T04:32:03.068Z,14.68
2022-08-07T04:34:33.252Z,14.70
2022-08-07T04:37:02.148Z,14.70
2022-08-07T04:39:35.980Z,14.80
2022-08-07T04:42:05.034Z,14.85
2022-08-07T04:44:33.455Z,14.87
2022-08-07T04:47:10.153Z,14.93
2022-08-07T04:50:05.460Z,14.92
2022-08-07T04:53:27.791Z,14.94
2022-08-07T04:58:10.348Z,14.98
2022-08-07T05:00:12.442Z,15.02
2022-08-07T05:02:24.295Z,15.25
2022-08-07T05:05:52.790Z,15.52
2022-08-07T05:08:59.895Z,15.70
2022-08-07T05:11:58.109Z,16.11
2022-08-07T05:14:56.261Z,16.68
2022-08-07T05:17:52.019Z,17.37
2022-08-07T05:20:21.350Z,18.33
2022-08-07T05:22:52.021Z,19.13
2022-08-07T05:25:26.249Z,20.48
2022-08-07T05:28:19.985Z,20.90
2022-08-07T05:30:53.354Z,21.19
2022-08-07T05:33:21.946Z,21.13
2022-08-07T05:35:53.657Z,21.08
2022-08-07T05:39:00.866Z,22.05
2022-08-07T05:41:15.628Z,21.33
2022-08-07T05:44:08.596Z,22.10
2022-08-07T05:46:36.398Z,22.52
2022-08-07T05:49:12.145Z,22.21
2022-08-07T05:51:46.559Z,22.09
2022-08-07T05:54:30.928Z,22.33
2022-08-07T05:57:07.050Z,21.82
2022-08-07T05:59:55.904Z,22.02
2022-08-07T06:02:30.762Z,21.27
2022-08-07T06:05:10.951Z,21.14
2022-08-07T06:08:29.589Z,21.27
2022-08-07T06:13:02.209Z,20.97
2022-08-07T06:15:42.469Z,21.76
2022-08-07T06:18:14.350Z,22.09
2022-08-07T06:20:50.404Z,22.50
2022-08-07T06:24:38.061Z,23.04
2022-08-07T06:26:22.149Z,23.28
2022-08-07T06:28:59.017Z,23.62
2022-08-07T06:31:38.550Z,23.65
2022-08-07T06:34:16.101Z,24.22
2022-08-07T06:36:47.251Z,24.26
2022-08-07T06:40:17.527Z,24.53
2022-08-07T06:42:13.571Z,25.24
2022-08-07T06:44:52.952Z,24.46
2022-08-07T06:47:21.898Z,25.07
2022-08-07T06:49:58.564Z,26.31
2022-08-07T06:52:36.969Z,26.83
2022-08-07T06:55:33.879Z,25.81
2022-08-07T06:58:13.277Z,26.40
2022-08-07T07:00:55.803Z,26.97
2022-08-07T07:03:39.779Z,26.95
2022-08-07T07:06:12.958Z,26.74
2022-08-07T07:08:46.811Z,25.73
2022-08-07T07:12:06.739Z,25.67
2022-08-07T07:14:02.841Z,25.94
2022-08-07T07:16:45.163Z,26.21
2022-08-07T07:19:57.330Z,26.82
2022-08-07T07:22:36.138Z,26.63
2022-08-07T07:26:31.330Z,25.46
2022-08-07T07:29:23.493Z,25.02
2022-08-07T07:31:46.816Z,24.83
2022-08-07T07:34:20.215Z,25.41
2022-08-07T07:36:52.703Z,25.16
2022-08-07T07:39:25.656Z,25.35
2022-08-07T07:42:13.362Z,25.41
2022-08-07T07:44:49.473Z,25.54
2022-08-07T07:47:23.912Z,26.27
2022-08-07T07:50:33.456Z,26.13
2022-08-07T07:52:44.159Z,24.62
2022-08-07T07:55:15.903Z,25.28
2022-08-07T07:57:53.149Z,25.46
2022-08-07T08:00:31.279Z,25.34
2022-08-07T08:03:16.693Z,25.58
2022-08-07T08:05:59.066Z,26.01
2022-08-07T08:08:35.985Z,25.62
2022-08-07T08:11:13.846Z,25.57
2022-08-07T08:13:54.521Z,26.25
2022-08-07T08:16:37.093Z,27.20
2022-08-07T08:19:09.897Z,26.64
2022-08-07T08:22:08.139Z,27.54
2022-08-07T08:25:18.452Z,26.66
2022-08-07T08:27:56.302Z,27.57
2022-08-07T08:30:27.865Z,26.50
2022-08-07T08:33:01.825Z,26.66
2022-08-07T08:35:39.427Z,27.27
2022-08-07T08:38:19.811Z,27.50
2022-08-07T08:40:58.561Z,26.96
2022-08-07T08:43:42.804Z,27.55
2022-08-07T08:46:55.326Z,27.21
2022-08-07T08:50:02.517Z,26.32
2022-08-07T08:53:38.832Z,27.53
2022-08-07T08:56:17.419Z,27.87
2022-08-07T08:59:06.636Z,28.30
2022-08-07T09:01:46.514Z,27.51
2022-08-07T09:04:40.419Z,27.74
2022-08-07T09:07:46.490Z,27.44
2022-08-07T09:10:37.858Z,26.24
2022-08-07T09:13:37.832Z,26.64
2022-08-07T09:16:22.695Z,26.18
2022-08-07T09:19:51.773Z,26.18
2022-08-07T09:24:53.853Z,26.67
2022-08-07T09:26:13.564Z,26.76
2022-08-07T09:30:01.625Z,27.88
2022-08-07T09:32:28.986Z,27.90
2022-08-07T09:36:04.929Z,27.58
2022-08-07T09:38:39.368Z,27.51
2022-08-07T09:41:22.656Z,27.16
2022-08-07T09:44:32.982Z,27.46
2022-08-07T09:47:55.861Z,27.82
2022-08-07T09:50:34.319Z,26.78
2022-08-07T09:53:05.339Z,26.72
2022-08-07T09:56:04.036Z,27.53
2022-08-07T09:59:24.871Z,26.85
2022-08-07T10:02:20.021Z,27.35
2022-08-07T10:04:53.469Z,28.16
2022-08-07T10:07:52.845Z,29.37
2022-08-07T10:11:16.429Z,30.08
2022-08-07T10:14:00.458Z,29.50
2022-08-07T10:17:14.406Z,30.90
2022-08-07T10:19:55.576Z,31.69
2022-08-07T10:22:36.799Z,29.89
2022-08-07T10:25:24.984Z,30.38
2022-08-07T10:28:20.013Z,29.66
2022-08-07T10:31:15.228Z,30.07
2022-08-07T10:34:06.748Z,30.72
2022-08-07T10:36:59.724Z,29.96
2022-08-07T10:40:05.737Z,30.61
2022-08-07T10:43:01.389Z,31.12
2022-08-07T10:45:44.420Z,31.06
2022-08-07T10:49:10.195Z,31.28
2022-08-07T10:52:02.352Z,30.39
2022-08-07T10:54:53.157Z,29.64
2022-08-07T10:58:04.344Z,30.91
2022-08-07T11:00:50.425Z,31.97
2022-08-07T11:03:52.589Z,29.91
2022-08-07T11:06:45.019Z,29.73
2022-08-07T11:10:10.185Z,29.99
2022-08-07T11:12:35.167Z,30.39
2022-08-07T11:15:17.333Z,32.42
2022-08-07T11:17:56.676Z,31.53
2022-08-07T11:20:57.100Z,32.25
2022-08-07T11:24:03.715Z,31.75
2022-08-07T11:26:57.754Z,30.37
2022-08-07T11:29:48.148Z,30.10
2022-08-07T11:32:25.822Z,29.54
2022-08-07T11:34:55.657Z,30.25
2022-08-07T11:37:58.327Z,31.35
2022-08-07T11:41:03.264Z,31.35
2022-08-07T11:44:10.749Z,32.66
2022-08-07T11:47:07.771Z,33.63
2022-08-07T11:50:32.437Z,33.15
2022-08-07T11:53:35.213Z,31.68
2022-08-07T11:56:40.267Z,30.96
2022-08-07T12:00:12.422Z,30.65
2022-08-07T12:03:42.252Z,31.56
2022-08-07T12:06:39.774Z,31.11
2022-08-07T12:09:16.032Z,31.59
2022-08-07T12:12:09.161Z,32.35
2022-08-07T12:15:05.403Z,31.89
2022-08-07T12:17:58.749Z,30.59
2022-08-07T12:20:51.980Z,30.17
2022-08-07T12:24:06.083Z,33.36
2022-08-07T12:26:29.733Z,32.76
2022-08-07T12:29:38.846Z,32.07
2022-08-07T12:32:28.078Z,31.24
2022-08-07T12:34:56.552Z,33.23
2022-08-07T12:37:28.611Z,32.97
2022-08-07T12:40:44.967Z,32.91
2022-08-07T12:43:09.586Z,33.29
2022-08-07T12:46:01.192Z,32.15
2022-08-07T12:48:52.988Z,31.72
2022-08-07T12:51:33.142Z,32.02
2022-08-07T12:54:37.458Z,33.93
2022-08-07T12:57:09.426Z,33.59
2022-08-07T12:59:54.196Z,32.64
2022-08-07T13:02:49.491Z,33.13
2022-08-07T13:06:04.695Z,33.59
2022-08-07T13:10:19.633Z,32.31
2022-08-07T13:12:54.150Z,31.61
2022-08-07T13:15:31.984Z,30.62
2022-08-07T13:18:25.775Z,28.82
2022-08-07T13:21:23.568Z,28.91
2022-08-07T13:24:20.352Z,28.44
2022-08-07T13:27:15.683Z,27.92
2022-08-07T13:30:06.460Z,28.41
2022-08-07T13:32:55.470Z,27.79
2022-08-07T13:36:00.499Z,27.73
2022-08-07T13:39:01.368Z,28.22
2022-08-07T13:41:47.308Z,28.42
2022-08-07T13:44:25.813Z,27.85
2022-08-07T13:46:59.482Z,27.07
2022-08-07T13:50:33.176Z,27.54
2022-08-07T13:52:32.335Z,28.04
2022-08-07T13:55:26.300Z,28.65
2022-08-07T13:58:27.933Z,29.06
2022-08-07T14:01:12.668Z,29.40
2022-08-07T14:04:05.403Z,29.29
2022-08-07T14:06:39.452Z,29.22
2022-08-07T14:09:17.188Z,29.42
2022-08-07T14:12:04.903Z,29.18
2022-08-07T14:14:45.129Z,29.11
2022-08-07T14:18:13.003Z,29.04
2022-08-07T14:20:40.914Z,28.42
2022-08-07T14:23:31.539Z,27.95
2022-08-07T14:26:28.153Z,27.70
2022-08-07T14:29:05.893Z,27.68
2022-08-07T14:31:55.997Z,27.84
2022-08-07T14:34:29.653Z,27.93
2022-08-07T14:37:01.748Z,28.17
2022-08-07T14:40:17.169Z,28.04
2022-08-07T14:42:32.212Z,27.63
2022-08-07T14:45:21.547Z,27.55
2022-08-07T14:47:51.259Z,27.62
2022-08-07T14:50:28.262Z,27.23
2022-08-07T14:52:57.042Z,27.18
2022-08-07T14:55:39.326Z,27.42
2022-08-07T14:58:32.372Z,27.47
2022-08-07T15:01:21.873Z,27.24
2022-08-07T15:03:52.184Z,27.35
2022-08-07T15:06:26.039Z,27.61
2022-08-07T15:14:57.870Z,27.40
2022-08-07T15:25:14.676Z,27.34
2022-08-07T15:26:22.649Z,27.19
2022-08-07T15:32:01.553Z,26.89
2022-08-07T15:35:02.922Z,26.74
2022-08-07T15:38:04.704Z,26.68
2022-08-07T15:40:34.228Z,26.98
2022-08-07T15:43:53.823Z,26.81
2022-08-07T15:49:13.230Z,26.67
2022-08-07T15:54:39.452Z,26.51
2022-08-07T15:57:28.159Z,26.48
2022-08-07T16:00:06.380Z,26.39
2022-08-07T16:02:46.576Z,26.35
2022-08-07T16:05:19.633Z,26.43
2022-08-07T16:08:31.347Z,26.42
2022-08-07T16:10:48.780Z,26.24
2022-08-07T16:13:59.023Z,26.30
2022-08-07T16:16:47.643Z,26.25
2022-08-07T16:20:33.406Z,26.29
2022-08-07T16:23:58.533Z,26.31
2022-08-07T16:26:30.972Z,26.27
2022-08-07T16:30:11.522Z,26.33
2022-08-07T16:32:32.764Z,26.24
2022-08-07T16:35:56.331Z,26.07
2022-08-07T16:39:00.985Z,26.10
2022-08-07T16:41:56.112Z,26.08
2022-08-07T16:45:24.660Z,26.01
2022-08-07T16:48:53.862Z,25.95
2022-08-07T16:52:35.409Z,25.89
2022-08-07T16:55:14.774Z,25.83
2022-08-07T16:58:08.189Z,25.84
2022-08-07T17:00:44.736Z,25.84
2022-08-07T17:03:17.089Z,25.85
2022-08-07T17:06:31.429Z,25.77
2022-08-07T17:10:05.901Z,25.75
2022-08-07T17:13:24.458Z,25.71
2022-08-07T17:16:34.646Z,25.70
2022-08-07T17:20:02.935Z,25.67
2022-08-07T17:22:37.847Z,25.66
2022-08-07T17:25:15.404Z,25.57
2022-08-07T17:28:13.430Z,25.55
2022-08-07T17:31:16.079Z,25.52
2022-08-07T17:34:33.363Z,25.44
2022-08-07T17:38:05.803Z,25.40
2022-08-07T17:40:34.258Z,25.33
2022-08-07T17:44:01.654Z,25.28
2022-08-07T17:46:42.386Z,25.22
2022-08-07T17:49:44.803Z,25.15
2022-08-07T17:52:30.805Z,25.05
2022-08-07T17:56:01.305Z,24.99
2022-08-07T17:58:59.702Z,24.93
2022-08-07T18:01:48.419Z,24.84
2022-08-07T18:04:49.238Z,24.70
2022-08-07T18:07:34.361Z,24.63
2022-08-07T18:10:39.088Z,24.52
2022-08-07T18:13:45.766Z,24.36
2022-08-07T18:16:33.347Z,24.26
2022-08-07T18:21:10.624Z,24.09
2022-08-07T18:22:26.497Z,23.99
2022-08-07T18:25:19.309Z,23.86
2022-08-07T18:28:35.269Z,23.66
2022-08-07T18:31:26.461Z,23.52
2022-08-07T18:34:37.901Z,23.35
2022-08-07T18:37:15.049Z,23.26
2022-08-07T18:40:42.716Z,23.23
2022-08-07T18:43:48.893Z,23.19
2022-08-07T18:46:58.252Z,23.04
2022-08-07T18:50:40.867Z,22.85
2022-08-07T18:53:55.498Z,22.71
2022-08-07T18:56:58.289Z,22.61
2022-08-07T18:59:59.119Z,22.50
2022-08-07T19:02:56.479Z,22.39
2022-08-07T19:06:03.407Z,22.32
2022-08-07T19:09:09.477Z,22.29
2022-08-07T19:12:13.407Z,22.18
2022-08-07T19:15:01.742Z,22.03
2022-08-07T19:17:59.231Z,21.89
2022-08-07T19:21:09.274Z,21.75
2022-08-07T19:23:59.111Z,21.51
2022-08-07T19:26:55.515Z,21.07
2022-08-07T19:30:57.803Z,20.94
2022-08-07T19:32:44.069Z,21.03
2022-08-07T19:35:19.593Z,21.10
2022-08-07T19:37:58.237Z,21.09
2022-08-07T19:40:31.267Z,20.78
2022-08-07T19:43:09.173Z,20.82
2022-08-07T19:46:08.255Z,20.85
2022-08-07T19:48:43.916Z,20.86
2022-08-07T19:51:19.570Z,20.55
2022-08-07T19:54:31.283Z,20.54
2022-08-07T19:57:52.390Z,20.42
2022-08-07T19:59:40.929Z,20.22
2022-08-07T20:02:19.840Z,20.10
2022-08-07T20:04:50.205Z,19.99
2022-08-07T20:07:45.604Z,19.95
2022-08-07T20:10:37.126Z,19.88
2022-08-07T20:13:27.030Z,19.86
2022-08-07T20:16:01.361Z,19.60
2022-08-07T20:18:32.867Z,19.48
2022-08-07T20:21:03.917Z,19.48
2022-08-07T20:24:00.703Z,19.31
2022-08-07T20:26:45.219Z,19.17
2022-08-07T20:29:48.883Z,19.05
2022-08-07T20:32:40.744Z,18.89
2022-08-07T20:35:15.813Z,19.06
2022-08-07T20:37:59.059Z,19.20
2022-08-07T20:40:32.666Z,19.19
2022-08-07T20:43:03.009Z,19.22
2022-08-07T20:46:28.477Z,18.89
2022-08-07T20:48:29.697Z,18.93
2022-08-07T20:51:04.716Z,18.40
2022-08-07T20:54:03.462Z,18.63
2022-08-07T20:56:29.376Z,18.40
2022-08-07T20:59:01.764Z,18.19
2022-08-07T21:01:45.554Z,18.26
2022-08-07T21:04:21.919Z,18.43
2022-08-07T21:06:53.620Z,18.51
2022-08-07T21:09:24.394Z,18.33
2022-08-07T21:11:57.631Z,17.86
2022-08-07T21:14:36.724Z,17.71
2022-08-07T21:18:01.772Z,17.54
2022-08-07T21:20:04.595Z,17.41
2022-08-07T21:22:44.714Z,17.31
2022-08-07T21:25:29.040Z,17.13
2022-08-07T21:28:49.268Z,17.03
2022-08-07T21:32:42.293Z,17.28
2022-08-07T21:34:59.624Z,17.34
2022-08-07T21:37:58.079Z,17.30
2022-08-07T21:41:10.171Z,17.26
2022-08-07T21:43:57.400Z,17.08
2022-08-07T21:46:49.594Z,16.86
2022-08-07T21:50:01.113Z,16.88
2022-08-07T21:53:00.008Z,16.35
2022-08-07T21:55:52.218Z,16.18
2022-08-07T21:58:32.204Z,15.84
2022-08-07T22:02:07.155Z,15.83
2022-08-07T22:04:31.937Z,15.97
2022-08-07T22:07:06.735Z,15.95
2022-08-07T22:09:53.726Z,16.04
2022-08-07T22:12:31.467Z,16.22
2022-08-07T22:16:39.028Z,15.96
2022-08-07T22:19:07.577Z,15.53
2022-08-07T22:22:17.773Z,15.36
2022-08-07T22:25:13.249Z,15.28
2022-08-07T22:28:07.529Z,15.22
2022-08-07T22:31:59.461Z,15.15
2022-08-07T22:34:15.794Z,15.07
2022-08-07T22:36:54.160Z,15.01
2022-08-07T22:39:53.602Z,15.07
2022-08-07T22:42:53.954Z,15.08
2022-08-07T22:46:04.461Z,14.86
2022-08-07T22:48:13.569Z,14.89
2022-08-07T22:51:06.512Z,14.75
2022-08-07T22:54:06.453Z,14.43
2022-08-07T22:56:56.889Z,14.35
2022-08-07T22:59:58.946Z,14.51
2022-08-07T23:02:50.287Z,14.96
2022-08-07T23:06:10.075Z,15.16
2022-08-07T23:10:05.147Z,15.08
2022-08-07T23:12:49.754Z,14.63
2022-08-07T23:16:06.869Z,14.63
2022-08-07T23:19:16.357Z,14.50
2022-08-07T23:22:34.047Z,14.39
2022-08-07T23:25:56.511Z,13.95
2022-08-07T23:29:02.394Z,13.88
2022-08-07T23:34:23.019Z,13.83
2022-08-07T23:35:07.884Z,13.78
2022-08-07T23:38:19.070Z,13.74
2022-08-07T23:41:11.336Z,13.59
2022-08-07T23:44:29.298Z,13.56
2022-08-07T23:47:42.313Z,14.05
2022-08-07T23:50:33.547Z,14.37
2022-08-07T23:53:17.284Z,14.47
2022-08-07T23:56:20.914Z,14.46
2022-08-07T23:58:51.010Z,14.54
